sensor_id;sensor_type;location;lat;lon;timestamp;temperature;humidity
21298;DHT22;10808;48.010;11.326;2022-10-31T00:00:57;12.20;99.90
21298;DHT22;10808;48.010;11.326;2022-10-31T00:03:23;12.20;99.90
21298;DHT22;10808;48.010;11.326;2022-10-31T00:05:50;12.20;99.90
21298;DHT22;10808;48.010;11.326;2022-10-31T00:08:17;12.20;99.90
21298;DHT22;10808;48.010;11.326;2022-10-31T00:10:44;12.10;99.90
21298;DHT22;10808;48.010;11.326;2022-10-31T00:13:11;12.10;99.90
21298;DHT22;10808;48.010;11.326;2022-10-31T00:15:39;12.10;99.90
21298;DHT22;10808;48.010;11.326;2022-10-31T00:18:08;12.10;99.90
21298;DHT22;10808;48.010;11.326;2022-10-31T00:20:34;12.10;99.90
21298;DHT22;10808;48.010;11.326;2022-10-31T00:23:01;12.10;99.90
21298;DHT22;10808;48.010;11.326;2022-10-31T00:25:28;12.00;99.90
21298;DHT22;10808;48.010;11.326;2022-10-31T00:27:55;12.00;99.90
21298;DHT22;10808;48.010;11.326;2022-10-31T00:30:21;12.00;99.90
21298;DHT22;10808;48.010;11.326;2022-10-31T00:32:47;12.10;99.90
21298;DHT22;10808;48.010;11.326;2022-10-31T00:35:13;12.10;99.90
21298;DHT22;10808;48.010;11.326;2022-10-31T00:37:39;12.00;99.90
21298;DHT22;10808;48.010;11.326;2022-10-31T00:40:05;12.00;99.90
21298;DHT22;10808;48.010;11.326;2022-10-31T00:42:31;12.00;99.90
21298;DHT22;10808;48.010;11.326;2022-10-31T00:44:57;12.00;99.90
21298;DHT22;10808;48.010;11.326;2022-10-31T00:47:23;12.00;99.90
21298;DHT22;10808;48.010;11.326;2022-10-31T00:49:50;11.90;99.90
21298;DHT22;10808;48.010;11.326;2022-10-31T00:52:16;11.90;99.90
21298;DHT22;10808;48.010;11.326;2022-10-31T00:54:42;11.90;99.90
21298;DHT22;10808;48.010;11.326;2022-10-31T00:57:08;11.90;99.90
21298;DHT22;10808;48.010;11.326;2022-10-31T00:59:34;11.90;99.90
21298;DHT22;10808;48.010;11.326;2022-10-31T01:02:00;11.90;99.90
21298;DHT22;10808;48.010;11.326;2022-10-31T01:04:26;11.90;99.90
21298;DHT22;10808;48.010;11.326;2022-10-31T01:06:52;11.90;99.90
21298;DHT22;10808;48.010;11.326;2022-10-31T01:09:18;11.90;99.90
21298;DHT22;10808;48.010;11.326;2022-10-31T01:11:44;11.90;99.90
21298;DHT22;10808;48.010;11.326;2022-10-31T01:14:10;11.90;99.90
21298;DHT22;10808;48.010;11.326;2022-10-31T01:16:36;11.80;99.90
21298;DHT22;10808;48.010;11.326;2022-10-31T01:19:02;11.80;99.90
21298;DHT22;10808;48.010;11.326;2022-10-31T01:21:29;11.90;99.90
21298;DHT22;10808;48.010;11.326;2022-10-31T01:23:56;11.80;99.90
21298;DHT22;10808;48.010;11.326;2022-10-31T01:26:27;11.80;99.90
21298;DHT22;10808;48.010;11.326;2022-10-31T01:29:03;11.80;99.90
21298;DHT22;10808;48.010;11.326;2022-10-31T01:31:32;11.70;99.90
21298;DHT22;10808;48.010;11.326;2022-10-31T01:33:59;11.80;99.90
21298;DHT22;10808;48.010;11.326;2022-10-31T01:36:34;11.80;99.90
21298;DHT22;10808;48.010;11.326;2022-10-31T01:39:03;11.70;99.90
21298;DHT22;10808;48.010;11.326;2022-10-31T01:41:32;11.80;99.90
21298;DHT22;10808;48.010;11.326;2022-10-31T01:44:46;11.70;99.90
21298;DHT22;10808;48.010;11.326;2022-10-31T01:49:40;11.70;99.90
21298;DHT22;10808;48.010;11.326;2022-10-31T01:54:43;11.70;99.90
21298;DHT22;10808;48.010;11.326;2022-10-31T01:57:13;11.70;99.90
21298;DHT22;10808;48.010;11.326;2022-10-31T01:59:44;11.60;99.90
21298;DHT22;10808;48.010;11.326;2022-10-31T02:02:12;11.60;99.90
21298;DHT22;10808;48.010;11.326;2022-10-31T02:04:38;11.60;99.90
21298;DHT22;10808;48.010;11.326;2022-10-31T02:07:13;11.60;99.90
21298;DHT22;10808;48.010;11.326;2022-10-31T02:09:41;11.70;99.90
21298;DHT22;10808;48.010;11.326;2022-10-31T02:12:10;11.60;99.90
21298;DHT22;10808;48.010;11.326;2022-10-31T02:14:37;11.60;99.90
21298;DHT22;10808;48.010;11.326;2022-10-31T02:17:04;11.60;99.90
21298;DHT22;10808;48.010;11.326;2022-10-31T02:19:46;11.60;99.90
21298;DHT22;10808;48.010;11.326;2022-10-31T02:28:11;11.60;99.90
21298;DHT22;10808;48.010;11.326;2022-10-31T02:36:16;11.50;99.90
21298;DHT22;10808;48.010;11.326;2022-10-31T02:41:52;11.50;99.90
21298;DHT22;10808;48.010;11.326;2022-10-31T02:44:24;11.40;99.90
21298;DHT22;10808;48.010;11.326;2022-10-31T02:47:13;11.50;99.90
21298;DHT22;10808;48.010;11.326;2022-10-31T02:50:00;11.50;99.90
21298;DHT22;10808;48.010;11.326;2022-10-31T02:52:28;11.40;99.90
21298;DHT22;10808;48.010;11.326;2022-10-31T02:54:55;11.40;99.90
21298;DHT22;10808;48.010;11.326;2022-10-31T02:57:25;11.40;99.90
21298;DHT22;10808;48.010;11.326;2022-10-31T02:59:57;11.40;99.90
21298;DHT22;10808;48.010;11.326;2022-10-31T03:05:55;11.40;99.90
21298;DHT22;10808;48.010;11.326;2022-10-31T03:08:55;11.40;99.90
21298;DHT22;10808;48.010;11.326;2022-10-31T03:11:32;11.30;99.90
21298;DHT22;10808;48.010;11.326;2022-10-31T03:14:06;11.30;99.90
21298;DHT22;10808;48.010;11.326;2022-10-31T03:16:38;11.30;99.90
21298;DHT22;10808;48.010;11.326;2022-10-31T03:19:09;11.20;99.90
21298;DHT22;10808;48.010;11.326;2022-10-31T03:21:47;11.20;99.90
21298;DHT22;10808;48.010;11.326;2022-10-31T03:24:15;11.30;99.90
21298;DHT22;10808;48.010;11.326;2022-10-31T03:26:47;11.20;99.90
21298;DHT22;10808;48.010;11.326;2022-10-31T03:29:16;11.20;99.90
21298;DHT22;10808;48.010;11.326;2022-10-31T03:31:55;11.20;99.90
21298;DHT22;10808;48.010;11.326;2022-10-31T03:34:23;11.20;99.90
21298;DHT22;10808;48.010;11.326;2022-10-31T03:36:51;11.20;99.90
21298;DHT22;10808;48.010;11.326;2022-10-31T03:39:21;11.20;99.90
21298;DHT22;10808;48.010;11.326;2022-10-31T03:42:09;11.20;99.90
21298;DHT22;10808;48.010;11.326;2022-10-31T03:44:38;11.10;99.90
21298;DHT22;10808;48.010;11.326;2022-10-31T03:47:06;11.10;99.90
21298;DHT22;10808;48.010;11.326;2022-10-31T03:49:33;11.10;99.90
21298;DHT22;10808;48.010;11.326;2022-10-31T03:52:28;11.10;99.90
21298;DHT22;10808;48.010;11.326;2022-10-31T04:00:44;11.00;99.90
21298;DHT22;10808;48.010;11.326;2022-10-31T04:03:15;11.10;99.90
21298;DHT22;10808;48.010;11.326;2022-10-31T04:05:45;11.10;99.90
21298;DHT22;10808;48.010;11.326;2022-10-31T04:08:18;11.10;99.90
21298;DHT22;10808;48.010;11.326;2022-10-31T04:10:48;11.00;99.90
21298;DHT22;10808;48.010;11.326;2022-10-31T04:13:19;11.00;99.90
21298;DHT22;10808;48.010;11.326;2022-10-31T04:15:47;11.00;99.90
21298;DHT22;10808;48.010;11.326;2022-10-31T04:18:14;11.00;99.90
21298;DHT22;10808;48.010;11.326;2022-10-31T04:20:41;10.90;99.90
21298;DHT22;10808;48.010;11.326;2022-10-31T04:23:20;10.90;99.90
21298;DHT22;10808;48.010;11.326;2022-10-31T04:25:46;10.90;99.90
21298;DHT22;10808;48.010;11.326;2022-10-31T04:28:12;10.90;99.90
21298;DHT22;10808;48.010;11.326;2022-10-31T04:30:38;10.90;99.90
21298;DHT22;10808;48.010;11.326;2022-10-31T04:33:04;10.90;99.90
21298;DHT22;10808;48.010;11.326;2022-10-31T04:35:30;10.80;99.90
21298;DHT22;10808;48.010;11.326;2022-10-31T04:37:56;10.80;99.90
21298;DHT22;10808;48.010;11.326;2022-10-31T04:40:22;10.80;99.90
21298;DHT22;10808;48.010;11.326;2022-10-31T04:42:48;10.80;99.90
21298;DHT22;10808;48.010;11.326;2022-10-31T04:45:14;10.80;99.90
21298;DHT22;10808;48.010;11.326;2022-10-31T04:47:40;10.70;99.90
21298;DHT22;10808;48.010;11.326;2022-10-31T04:50:06;10.70;99.90
21298;DHT22;10808;48.010;11.326;2022-10-31T04:52:38;10.70;99.90
21298;DHT22;10808;48.010;11.326;2022-10-31T04:55:04;10.70;99.90
21298;DHT22;10808;48.010;11.326;2022-10-31T04:57:30;10.70;99.90
21298;DHT22;10808;48.010;11.326;2022-10-31T04:59:56;10.70;99.90
21298;DHT22;10808;48.010;11.326;2022-10-31T05:02:22;10.60;99.90
21298;DHT22;10808;48.010;11.326;2022-10-31T05:04:48;10.60;99.90
21298;DHT22;10808;48.010;11.326;2022-10-31T05:07:14;10.60;99.90
21298;DHT22;10808;48.010;11.326;2022-10-31T05:09:40;10.60;99.90
21298;DHT22;10808;48.010;11.326;2022-10-31T05:12:06;10.50;99.90
21298;DHT22;10808;48.010;11.326;2022-10-31T05:14:32;10.60;99.90
21298;DHT22;10808;48.010;11.326;2022-10-31T05:16:58;10.50;99.90
21298;DHT22;10808;48.010;11.326;2022-10-31T05:19:24;10.50;99.90
21298;DHT22;10808;48.010;11.326;2022-10-31T05:21:50;10.50;99.90
21298;DHT22;10808;48.010;11.326;2022-10-31T05:24:16;10.50;99.90
21298;DHT22;10808;48.010;11.326;2022-10-31T05:26:42;10.40;99.90
21298;DHT22;10808;48.010;11.326;2022-10-31T05:29:08;10.40;99.90
21298;DHT22;10808;48.010;11.326;2022-10-31T05:31:34;10.40;99.90
21298;DHT22;10808;48.010;11.326;2022-10-31T05:34:00;10.40;99.90
21298;DHT22;10808;48.010;11.326;2022-10-31T05:36:26;10.40;99.90
21298;DHT22;10808;48.010;11.326;2022-10-31T05:38:53;10.40;99.90
21298;DHT22;10808;48.010;11.326;2022-10-31T05:41:19;10.40;99.90
21298;DHT22;10808;48.010;11.326;2022-10-31T05:43:45;10.40;99.90
21298;DHT22;10808;48.010;11.326;2022-10-31T05:46:11;10.40;99.90
21298;DHT22;10808;48.010;11.326;2022-10-31T05:48:37;10.40;99.90
21298;DHT22;10808;48.010;11.326;2022-10-31T05:51:03;10.40;99.90
21298;DHT22;10808;48.010;11.326;2022-10-31T05:53:29;10.40;99.90
21298;DHT22;10808;48.010;11.326;2022-10-31T05:55:55;10.30;99.90
21298;DHT22;10808;48.010;11.326;2022-10-31T05:58:21;10.30;99.90
21298;DHT22;10808;48.010;11.326;2022-10-31T06:00:47;10.30;99.90
21298;DHT22;10808;48.010;11.326;2022-10-31T06:03:13;10.20;99.90
21298;DHT22;10808;48.010;11.326;2022-10-31T06:05:39;10.20;99.90
21298;DHT22;10808;48.010;11.326;2022-10-31T06:08:05;10.20;99.90
21298;DHT22;10808;48.010;11.326;2022-10-31T06:10:31;10.20;99.90
21298;DHT22;10808;48.010;11.326;2022-10-31T06:12:57;10.20;99.90
21298;DHT22;10808;48.010;11.326;2022-10-31T06:15:23;10.20;99.90
21298;DHT22;10808;48.010;11.326;2022-10-31T06:18:00;10.20;99.90
21298;DHT22;10808;48.010;11.326;2022-10-31T06:20:27;10.20;99.90
21298;DHT22;10808;48.010;11.326;2022-10-31T06:22:53;10.20;99.90
21298;DHT22;10808;48.010;11.326;2022-10-31T06:25:19;10.20;99.90
21298;DHT22;10808;48.010;11.326;2022-10-31T06:27:45;10.20;99.90
21298;DHT22;10808;48.010;11.326;2022-10-31T06:30:11;10.10;99.90
21298;DHT22;10808;48.010;11.326;2022-10-31T06:32:38;10.10;99.90
21298;DHT22;10808;48.010;11.326;2022-10-31T06:35:04;10.20;99.90
21298;DHT22;10808;48.010;11.326;2022-10-31T06:37:30;10.20;99.90
21298;DHT22;10808;48.010;11.326;2022-10-31T06:39:56;10.20;99.90
21298;DHT22;10808;48.010;11.326;2022-10-31T06:42:22;10.10;99.90
21298;DHT22;10808;48.010;11.326;2022-10-31T06:44:48;10.10;99.90
21298;DHT22;10808;48.010;11.326;2022-10-31T06:47:14;10.20;99.90
21298;DHT22;10808;48.010;11.326;2022-10-31T06:49:40;10.10;99.90
21298;DHT22;10808;48.010;11.326;2022-10-31T06:52:06;10.10;99.90
21298;DHT22;10808;48.010;11.326;2022-10-31T06:54:32;10.10;99.90
21298;DHT22;10808;48.010;11.326;2022-10-31T06:56:58;10.10;99.90
21298;DHT22;10808;48.010;11.326;2022-10-31T06:59:24;10.20;99.90
21298;DHT22;10808;48.010;11.326;2022-10-31T07:01:50;10.20;99.90
21298;DHT22;10808;48.010;11.326;2022-10-31T07:04:16;10.20;99.90
21298;DHT22;10808;48.010;11.326;2022-10-31T07:06:42;10.20;99.90
21298;DHT22;10808;48.010;11.326;2022-10-31T07:09:08;10.20;99.90
21298;DHT22;10808;48.010;11.326;2022-10-31T07:11:34;10.20;99.90
21298;DHT22;10808;48.010;11.326;2022-10-31T07:14:00;10.30;99.90
21298;DHT22;10808;48.010;11.326;2022-10-31T07:16:26;10.30;99.90
21298;DHT22;10808;48.010;11.326;2022-10-31T07:18:53;10.30;99.90
21298;DHT22;10808;48.010;11.326;2022-10-31T07:21:19;10.40;99.90
21298;DHT22;10808;48.010;11.326;2022-10-31T07:23:47;10.50;99.90
21298;DHT22;10808;48.010;11.326;2022-10-31T07:26:13;10.50;99.90
21298;DHT22;10808;48.010;11.326;2022-10-31T07:28:39;10.50;99.90
21298;DHT22;10808;48.010;11.326;2022-10-31T07:31:06;10.60;99.90
21298;DHT22;10808;48.010;11.326;2022-10-31T07:33:32;10.60;99.90
21298;DHT22;10808;48.010;11.326;2022-10-31T07:35:58;10.70;99.90
21298;DHT22;10808;48.010;11.326;2022-10-31T07:38:24;10.70;99.90
21298;DHT22;10808;48.010;11.326;2022-10-31T07:40:51;10.70;99.90
21298;DHT22;10808;48.010;11.326;2022-10-31T07:43:19;10.80;99.90
21298;DHT22;10808;48.010;11.326;2022-10-31T07:45:50;10.80;99.90
21298;DHT22;10808;48.010;11.326;2022-10-31T07:48:16;10.90;99.90
21298;DHT22;10808;48.010;11.326;2022-10-31T07:50:42;11.00;99.90
21298;DHT22;10808;48.010;11.326;2022-10-31T07:53:10;11.00;99.90
21298;DHT22;10808;48.010;11.326;2022-10-31T07:55:37;11.10;99.90
21298;DHT22;10808;48.010;11.326;2022-10-31T07:58:05;11.20;99.90
21298;DHT22;10808;48.010;11.326;2022-10-31T08:00:33;11.30;99.90
21298;DHT22;10808;48.010;11.326;2022-10-31T08:03:02;11.30;99.90
21298;DHT22;10808;48.010;11.326;2022-10-31T08:05:29;11.40;99.90
21298;DHT22;10808;48.010;11.326;2022-10-31T08:07:55;11.50;99.90
21298;DHT22;10808;48.010;11.326;2022-10-31T08:10:22;11.60;99.90
21298;DHT22;10808;48.010;11.326;2022-10-31T08:12:57;11.70;99.90
21298;DHT22;10808;48.010;11.326;2022-10-31T08:15:24;11.80;99.90
21298;DHT22;10808;48.010;11.326;2022-10-31T08:17:50;11.80;99.90
21298;DHT22;10808;48.010;11.326;2022-10-31T08:20:16;12.00;99.90
21298;DHT22;10808;48.010;11.326;2022-10-31T08:22:42;12.10;99.90
21298;DHT22;10808;48.010;11.326;2022-10-31T08:25:08;12.20;99.90
21298;DHT22;10808;48.010;11.326;2022-10-31T08:27:34;12.40;99.90
21298;DHT22;10808;48.010;11.326;2022-10-31T08:30:00;12.60;99.90
21298;DHT22;10808;48.010;11.326;2022-10-31T08:32:26;12.70;99.90
21298;DHT22;10808;48.010;11.326;2022-10-31T08:34:52;12.90;99.90
21298;DHT22;10808;48.010;11.326;2022-10-31T08:37:19;13.10;99.90
21298;DHT22;10808;48.010;11.326;2022-10-31T08:39:46;13.30;99.90
21298;DHT22;10808;48.010;11.326;2022-10-31T08:42:12;13.40;99.90
21298;DHT22;10808;48.010;11.326;2022-10-31T08:44:39;13.60;99.90
21298;DHT22;10808;48.010;11.326;2022-10-31T08:47:05;13.80;99.90
21298;DHT22;10808;48.010;11.326;2022-10-31T08:49:31;14.10;99.90
21298;DHT22;10808;48.010;11.326;2022-10-31T08:51:57;14.30;99.90
21298;DHT22;10808;48.010;11.326;2022-10-31T08:54:23;14.60;99.90
21298;DHT22;10808;48.010;11.326;2022-10-31T08:56:53;14.70;99.90
21298;DHT22;10808;48.010;11.326;2022-10-31T08:59:20;15.00;99.90
21298;DHT22;10808;48.010;11.326;2022-10-31T09:01:46;15.20;99.90
21298;DHT22;10808;48.010;11.326;2022-10-31T09:04:12;15.40;99.90
21298;DHT22;10808;48.010;11.326;2022-10-31T09:06:38;15.60;99.90
21298;DHT22;10808;48.010;11.326;2022-10-31T09:09:04;15.80;99.90
21298;DHT22;10808;48.010;11.326;2022-10-31T09:11:30;16.00;99.90
21298;DHT22;10808;48.010;11.326;2022-10-31T09:13:57;16.20;99.90
21298;DHT22;10808;48.010;11.326;2022-10-31T09:16:23;16.40;99.90
21298;DHT22;10808;48.010;11.326;2022-10-31T09:18:49;16.60;99.90
21298;DHT22;10808;48.010;11.326;2022-10-31T09:21:15;16.80;99.90
21298;DHT22;10808;48.010;11.326;2022-10-31T09:23:41;17.00;99.90
21298;DHT22;10808;48.010;11.326;2022-10-31T09:26:07;17.20;99.90
21298;DHT22;10808;48.010;11.326;2022-10-31T09:28:33;17.40;99.90
21298;DHT22;10808;48.010;11.326;2022-10-31T09:30:59;17.50;99.90
21298;DHT22;10808;48.010;11.326;2022-10-31T09:33:25;17.70;99.90
21298;DHT22;10808;48.010;11.326;2022-10-31T09:35:51;17.90;99.90
21298;DHT22;10808;48.010;11.326;2022-10-31T09:38:20;18.10;99.90
21298;DHT22;10808;48.010;11.326;2022-10-31T09:46:16;18.60;99.90
21298;DHT22;10808;48.010;11.326;2022-10-31T09:48:55;18.80;99.90
21298;DHT22;10808;48.010;11.326;2022-10-31T09:51:36;19.00;99.90
21298;DHT22;10808;48.010;11.326;2022-10-31T09:54:08;19.30;99.90
21298;DHT22;10808;48.010;11.326;2022-10-31T09:56:37;19.40;99.90
21298;DHT22;10808;48.010;11.326;2022-10-31T09:59:08;19.60;99.90
21298;DHT22;10808;48.010;11.326;2022-10-31T10:01:43;19.80;99.90
21298;DHT22;10808;48.010;11.326;2022-10-31T10:06:46;20.30;99.90
21298;DHT22;10808;48.010;11.326;2022-10-31T10:09:13;20.50;99.90
21298;DHT22;10808;48.010;11.326;2022-10-31T10:17:19;20.90;99.90
21298;DHT22;10808;48.010;11.326;2022-10-31T10:20:05;21.00;99.90
21298;DHT22;10808;48.010;11.326;2022-10-31T10:22:40;21.20;99.90
21298;DHT22;10808;48.010;11.326;2022-10-31T10:25:14;21.50;99.90
21298;DHT22;10808;48.010;11.326;2022-10-31T10:28:01;21.60;99.90
21298;DHT22;10808;48.010;11.326;2022-10-31T10:30:36;21.60;99.90
21298;DHT22;10808;48.010;11.326;2022-10-31T10:33:22;21.80;99.90
21298;DHT22;10808;48.010;11.326;2022-10-31T10:35:55;21.90;99.90
21298;DHT22;10808;48.010;11.326;2022-10-31T10:38:30;22.10;99.90
21298;DHT22;10808;48.010;11.326;2022-10-31T10:40:58;22.30;99.90
21298;DHT22;10808;48.010;11.326;2022-10-31T10:46:26;22.30;99.90
21298;DHT22;10808;48.010;11.326;2022-10-31T10:51:57;22.10;98.90
21298;DHT22;10808;48.010;11.326;2022-10-31T10:54:47;22.10;98.90
21298;DHT22;10808;48.010;11.326;2022-10-31T11:00:21;22.10;98.90
21298;DHT22;10808;48.010;11.326;2022-10-31T11:02:48;22.10;98.50
21298;DHT22;10808;48.010;11.326;2022-10-31T11:08:33;21.90;99.30
21298;DHT22;10808;48.010;11.326;2022-10-31T11:11:27;22.00;99.80
21298;DHT22;10808;48.010;11.326;2022-10-31T11:14:12;22.10;99.00
21298;DHT22;10808;48.010;11.326;2022-10-31T11:16:42;22.10;99.60
21298;DHT22;10808;48.010;11.326;2022-10-31T11:19:13;22.20;98.70
21298;DHT22;10808;48.010;11.326;2022-10-31T11:21:42;22.10;98.50
21298;DHT22;10808;48.010;11.326;2022-10-31T11:26:37;22.10;99.40
21298;DHT22;10808;48.010;11.326;2022-10-31T11:29:04;22.10;99.40
21298;DHT22;10808;48.010;11.326;2022-10-31T11:31:32;22.10;99.70
21298;DHT22;10808;48.010;11.326;2022-10-31T11:34:02;22.20;99.90
21298;DHT22;10808;48.010;11.326;2022-10-31T11:36:32;22.10;98.90
21298;DHT22;10808;48.010;11.326;2022-10-31T11:39:02;22.20;99.00
21298;DHT22;10808;48.010;11.326;2022-10-31T11:41:36;22.20;99.00
21298;DHT22;10808;48.010;11.326;2022-10-31T11:44:17;22.00;98.80
21298;DHT22;10808;48.010;11.326;2022-10-31T11:46:50;22.10;99.80
21298;DHT22;10808;48.010;11.326;2022-10-31T11:51:54;22.10;99.90
21298;DHT22;10808;48.010;11.326;2022-10-31T11:54:28;22.20;99.90
21298;DHT22;10808;48.010;11.326;2022-10-31T11:56:55;22.20;99.90
21298;DHT22;10808;48.010;11.326;2022-10-31T11:59:31;22.30;99.90
21298;DHT22;10808;48.010;11.326;2022-10-31T12:02:00;22.30;99.90
21298;DHT22;10808;48.010;11.326;2022-10-31T12:06:56;22.30;99.80
21298;DHT22;10808;48.010;11.326;2022-10-31T12:09:28;22.30;99.70
21298;DHT22;10808;48.010;11.326;2022-10-31T12:12:36;22.20;99.70
21298;DHT22;10808;48.010;11.326;2022-10-31T12:15:32;22.20;99.90
21298;DHT22;10808;48.010;11.326;2022-10-31T12:21:11;22.10;99.90
21298;DHT22;10808;48.010;11.326;2022-10-31T12:32:40;22.30;99.90
21298;DHT22;10808;48.010;11.326;2022-10-31T12:38:11;22.30;99.90
21298;DHT22;10808;48.010;11.326;2022-10-31T12:40:59;22.20;99.90
21298;DHT22;10808;48.010;11.326;2022-10-31T12:49:26;22.30;99.90
21298;DHT22;10808;48.010;11.326;2022-10-31T12:54:49;22.40;99.90
21298;DHT22;10808;48.010;11.326;2022-10-31T12:57:39;22.40;99.30
21298;DHT22;10808;48.010;11.326;2022-10-31T13:00:17;22.30;99.70
21298;DHT22;10808;48.010;11.326;2022-10-31T13:05:33;22.30;99.90
21298;DHT22;10808;48.010;11.326;2022-10-31T13:08:31;22.40;99.90
21298;DHT22;10808;48.010;11.326;2022-10-31T13:11:40;22.50;99.90
21298;DHT22;10808;48.010;11.326;2022-10-31T13:14:50;22.60;99.90
21298;DHT22;10808;48.010;11.326;2022-10-31T13:20:12;22.60;99.90
21298;DHT22;10808;48.010;11.326;2022-10-31T13:22:42;22.60;99.60
21298;DHT22;10808;48.010;11.326;2022-10-31T13:25:11;22.60;99.90
21298;DHT22;10808;48.010;11.326;2022-10-31T13:27:58;22.60;99.90
21298;DHT22;10808;48.010;11.326;2022-10-31T13:30:34;22.60;99.90
21298;DHT22;10808;48.010;11.326;2022-10-31T13:33:14;22.60;99.90
21298;DHT22;10808;48.010;11.326;2022-10-31T13:35:52;22.50;99.90
21298;DHT22;10808;48.010;11.326;2022-10-31T13:38:29;22.50;99.90
21298;DHT22;10808;48.010;11.326;2022-10-31T13:41:00;22.50;99.90
21298;DHT22;10808;48.010;11.326;2022-10-31T13:43:38;22.60;99.90
21298;DHT22;10808;48.010;11.326;2022-10-31T13:48:57;22.70;99.90
21298;DHT22;10808;48.010;11.326;2022-10-31T13:51:28;22.70;99.90
21298;DHT22;10808;48.010;11.326;2022-10-31T13:56:23;22.70;99.90
21298;DHT22;10808;48.010;11.326;2022-10-31T14:01:36;22.60;99.70
21298;DHT22;10808;48.010;11.326;2022-10-31T14:04:36;22.60;99.80
21298;DHT22;10808;48.010;11.326;2022-10-31T14:07:12;22.70;99.80
21298;DHT22;10808;48.010;11.326;2022-10-31T14:12:26;22.90;99.00
21298;DHT22;10808;48.010;11.326;2022-10-31T14:14:58;22.90;98.90
21298;DHT22;10808;48.010;11.326;2022-10-31T14:17:27;23.10;98.60
21298;DHT22;10808;48.010;11.326;2022-10-31T14:22:45;23.20;99.20
21298;DHT22;10808;48.010;11.326;2022-10-31T14:25:26;23.20;99.10
21298;DHT22;10808;48.010;11.326;2022-10-31T14:27:52;23.20;99.10
21298;DHT22;10808;48.010;11.326;2022-10-31T14:30:21;23.20;99.60
21298;DHT22;10808;48.010;11.326;2022-10-31T14:32:54;23.20;99.10
21298;DHT22;10808;48.010;11.326;2022-10-31T14:35:26;23.30;99.40
21298;DHT22;10808;48.010;11.326;2022-10-31T14:41:02;23.50;98.30
21298;DHT22;10808;48.010;11.326;2022-10-31T14:43:43;23.50;98.50
21298;DHT22;10808;48.010;11.326;2022-10-31T14:46:52;23.40;98.60
21298;DHT22;10808;48.010;11.326;2022-10-31T14:49:43;23.30;98.60
21298;DHT22;10808;48.010;11.326;2022-10-31T14:52:14;23.10;98.40
21298;DHT22;10808;48.010;11.326;2022-10-31T14:54:49;23.00;99.00
21298;DHT22;10808;48.010;11.326;2022-10-31T14:57:32;23.00;99.00
21298;DHT22;10808;48.010;11.326;2022-10-31T15:00:07;22.90;99.10
21298;DHT22;10808;48.010;11.326;2022-10-31T15:05:15;22.70;99.40
21298;DHT22;10808;48.010;11.326;2022-10-31T15:07:58;22.60;99.30
21298;DHT22;10808;48.010;11.326;2022-10-31T15:10:30;22.50;99.90
21298;DHT22;10808;48.010;11.326;2022-10-31T15:13:14;22.50;99.90
21298;DHT22;10808;48.010;11.326;2022-10-31T15:15:43;22.40;99.90
21298;DHT22;10808;48.010;11.326;2022-10-31T15:18:30;22.30;99.90
21298;DHT22;10808;48.010;11.326;2022-10-31T15:20:56;22.20;99.90
21298;DHT22;10808;48.010;11.326;2022-10-31T15:23:26;22.10;99.90
21298;DHT22;10808;48.010;11.326;2022-10-31T15:26:01;22.10;99.90
21298;DHT22;10808;48.010;11.326;2022-10-31T15:28:27;21.90;99.90
21298;DHT22;10808;48.010;11.326;2022-10-31T15:30:56;21.90;99.90
21298;DHT22;10808;48.010;11.326;2022-10-31T15:33:31;21.80;99.90
21298;DHT22;10808;48.010;11.326;2022-10-31T15:35:59;21.60;99.90
21298;DHT22;10808;48.010;11.326;2022-10-31T15:38:27;21.40;99.90
21298;DHT22;10808;48.010;11.326;2022-10-31T15:41:00;21.30;99.90
21298;DHT22;10808;48.010;11.326;2022-10-31T15:43:35;21.20;99.90
21298;DHT22;10808;48.010;11.326;2022-10-31T15:46:03;21.00;99.90
21298;DHT22;10808;48.010;11.326;2022-10-31T15:48:29;20.80;99.90
21298;DHT22;10808;48.010;11.326;2022-10-31T15:51:00;20.70;99.90
21298;DHT22;10808;48.010;11.326;2022-10-31T15:53:51;20.70;99.90
21298;DHT22;10808;48.010;11.326;2022-10-31T15:56:28;20.60;99.90
21298;DHT22;10808;48.010;11.326;2022-10-31T15:58:57;20.60;99.90
21298;DHT22;10808;48.010;11.326;2022-10-31T16:01:29;20.50;99.90
21298;DHT22;10808;48.010;11.326;2022-10-31T16:04:02;20.40;99.90
21298;DHT22;10808;48.010;11.326;2022-10-31T16:06:30;20.30;99.90
21298;DHT22;10808;48.010;11.326;2022-10-31T16:08:56;20.20;99.90
21298;DHT22;10808;48.010;11.326;2022-10-31T16:16:43;19.70;99.90
21298;DHT22;10808;48.010;11.326;2022-10-31T16:19:28;19.60;99.90
21298;DHT22;10808;48.010;11.326;2022-10-31T16:22:19;19.40;99.90
21298;DHT22;10808;48.010;11.326;2022-10-31T16:24:57;19.30;99.90
21298;DHT22;10808;48.010;11.326;2022-10-31T16:27:27;19.20;99.90
21298;DHT22;10808;48.010;11.326;2022-10-31T16:29:58;19.20;99.90
21298;DHT22;10808;48.010;11.326;2022-10-31T16:32:31;19.20;99.90
21298;DHT22;10808;48.010;11.326;2022-10-31T16:35:37;19.30;99.90
21298;DHT22;10808;48.010;11.326;2022-10-31T16:38:04;19.30;99.90
21298;DHT22;10808;48.010;11.326;2022-10-31T16:40:30;19.50;99.90
21298;DHT22;10808;48.010;11.326;2022-10-31T16:42:58;19.70;99.90
21298;DHT22;10808;48.010;11.326;2022-10-31T16:45:27;19.90;99.90
21298;DHT22;10808;48.010;11.326;2022-10-31T16:47:54;19.90;99.90
21298;DHT22;10808;48.010;11.326;2022-10-31T16:50:27;20.00;99.90
21298;DHT22;10808;48.010;11.326;2022-10-31T16:52:53;20.10;99.90
21298;DHT22;10808;48.010;11.326;2022-10-31T16:55:20;19.80;99.90
21298;DHT22;10808;48.010;11.326;2022-10-31T16:57:49;19.60;99.90
21298;DHT22;10808;48.010;11.326;2022-10-31T17:00:20;19.40;99.90
21298;DHT22;10808;48.010;11.326;2022-10-31T17:02:48;19.30;99.90
21298;DHT22;10808;48.010;11.326;2022-10-31T17:05:16;19.00;99.90
21298;DHT22;10808;48.010;11.326;2022-10-31T17:07:43;18.70;99.90
21298;DHT22;10808;48.010;11.326;2022-10-31T17:10:11;18.50;99.90
21298;DHT22;10808;48.010;11.326;2022-10-31T17:12:39;18.20;99.90
21298;DHT22;10808;48.010;11.326;2022-10-31T17:15:26;18.00;99.90
21298;DHT22;10808;48.010;11.326;2022-10-31T17:17:53;17.80;99.90
21298;DHT22;10808;48.010;11.326;2022-10-31T17:20:21;17.60;99.90
21298;DHT22;10808;48.010;11.326;2022-10-31T17:22:48;17.50;99.90
21298;DHT22;10808;48.010;11.326;2022-10-31T17:25:24;17.30;99.90
21298;DHT22;10808;48.010;11.326;2022-10-31T17:27:50;17.10;99.90
21298;DHT22;10808;48.010;11.326;2022-10-31T17:30:18;16.90;99.90
21298;DHT22;10808;48.010;11.326;2022-10-31T17:32:46;16.80;99.90